sensor_id;sensor_type;location;lat;lon;timestamp;P1;durP1;ratioP1;P2;durP2;ratioP2
3817;SDS011;1924;48.078;11.516;2023-07-13T04:01:49;36.60;;;0.80;;
3817;SDS011;1924;48.078;11.516;2023-07-13T04:04:16;36.60;;;0.80;;
3817;SDS011;1924;48.078;11.516;2023-07-13T04:06:43;36.53;;;0.80;;
3817;SDS011;1924;48.078;11.516;2023-07-13T04:09:10;36.67;;;0.80;;
3817;SDS011;1924;48.078;11.516;2023-07-13T04:11:36;36.60;;;0.80;;
3817;SDS011;1924;48.078;11.516;2023-07-13T04:14:03;36.53;;;0.83;;
3817;SDS011;1924;48.078;11.516;2023-07-13T04:16:30;36.50;;;0.80;;
3817;SDS011;1924;48.078;11.516;2023-07-13T04:18:59;36.33;;;0.80;;
3817;SDS011;1924;48.078;11.516;2023-07-13T04:21:25;36.70;;;0.80;;
3817;SDS011;1924;48.078;11.516;2023-07-13T04:23:53;36.47;;;0.80;;
3817;SDS011;1924;48.078;11.516;2023-07-13T04:26:20;36.40;;;0.80;;
3817;SDS011;1924;48.078;11.516;2023-07-13T04:28:47;36.60;;;0.80;;
3817;SDS011;1924;48.078;11.516;2023-07-13T04:31:15;36.50;;;0.80;;
3817;SDS011;1924;48.078;11.516;2023-07-13T04:33:42;36.47;;;0.80;;
3817;SDS011;1924;48.078;11.516;2023-07-13T04:36:10;36.53;;;0.80;;
3817;SDS011;1924;48.078;11.516;2023-07-13T04:38:38;36.50;;;0.80;;
3817;SDS011;1924;48.078;11.516;2023-07-13T04:41:06;36.37;;;0.80;;
3817;SDS011;1924;48.078;11.516;2023-07-13T04:43:34;36.50;;;0.80;;
3817;SDS011;1924;48.078;11.516;2023-07-13T04:46:03;36.13;;;0.80;;
3817;SDS011;1924;48.078;11.516;2023-07-13T04:48:30;36.33;;;0.80;;
3817;SDS011;1924;48.078;11.516;2023-07-13T04:50:57;36.40;;;0.80;;
3817;SDS011;1924;48.078;11.516;2023-07-13T04:53:26;36.33;;;0.80;;
3817;SDS011;1924;48.078;11.516;2023-07-13T04:55:53;36.57;;;0.80;;
3817;SDS011;1924;48.078;11.516;2023-07-13T04:58:20;36.47;;;0.90;;
3817;SDS011;1924;48.078;11.516;2023-07-13T05:00:47;36.40;;;0.80;;
3817;SDS011;1924;48.078;11.516;2023-07-13T05:03:14;36.17;;;0.80;;
3817;SDS011;1924;48.078;11.516;2023-07-13T05:05:41;36.47;;;0.80;;
3817;SDS011;1924;48.078;11.516;2023-07-13T05:08:07;36.50;;;0.80;;
3817;SDS011;1924;48.078;11.516;2023-07-13T05:10:35;36.27;;;0.80;;
3817;SDS011;1924;48.078;11.516;2023-07-13T05:13:02;36.27;;;0.80;;
3817;SDS011;1924;48.078;11.516;2023-07-13T05:15:29;36.30;;;0.80;;
3817;SDS011;1924;48.078;11.516;2023-07-13T05:17:55;36.43;;;0.80;;
3817;SDS011;1924;48.078;11.516;2023-07-13T05:20:22;36.47;;;0.80;;
3817;SDS011;1924;48.078;11.516;2023-07-13T05:22:49;36.13;;;0.80;;
3817;SDS011;1924;48.078;11.516;2023-07-13T05:25:15;36.17;;;0.80;;
3817;SDS011;1924;48.078;11.516;2023-07-13T05:27:44;36.50;;;0.80;;
3817;SDS011;1924;48.078;11.516;2023-07-13T05:30:12;36.40;;;0.80;;
3817;SDS011;1924;48.078;11.516;2023-07-13T05:32:39;36.57;;;0.80;;
3817;SDS011;1924;48.078;11.516;2023-07-13T05:35:06;36.53;;;0.90;;
3817;SDS011;1924;48.078;11.516;2023-07-13T05:37:33;36.27;;;0.80;;
3817;SDS011;1924;48.078;11.516;2023-07-13T05:40:00;36.40;;;0.80;;
3817;SDS011;1924;48.078;11.516;2023-07-13T05:42:27;36.37;;;0.80;;
3817;SDS011;1924;48.078;11.516;2023-07-13T05:44:57;36.37;;;0.80;;
3817;SDS011;1924;48.078;11.516;2023-07-13T05:47:24;36.13;;;0.80;;
3817;SDS011;1924;48.078;11.516;2023-07-13T05:49:50;36.40;;;0.80;;
3817;SDS011;1924;48.078;11.516;2023-07-13T05:52:17;36.17;;;0.80;;
3817;SDS011;1924;48.078;11.516;2023-07-13T05:54:44;36.27;;;0.80;;
3817;SDS011;1924;48.078;11.516;2023-07-13T05:57:10;36.23;;;0.80;;
3817;SDS011;1924;48.078;11.516;2023-07-13T05:59:37;36.37;;;0.80;;
3817;SDS011;1924;48.078;11.516;2023-07-13T06:02:07;36.20;;;0.80;;
3817;SDS011;1924;48.078;11.516;2023-07-13T06:04:35;36.30;;;0.80;;
3817;SDS011;1924;48.078;11.516;2023-07-13T06:07:02;36.20;;;0.80;;
3817;SDS011;1924;48.078;11.516;2023-07-13T06:09:29;36.30;;;0.80;;
3817;SDS011;1924;48.078;11.516;2023-07-13T06:11:55;36.10;;;0.80;;
3817;SDS011;1924;48.078;11.516;2023-07-13T06:14:22;36.20;;;0.80;;
3817;SDS011;1924;48.078;11.516;2023-07-13T06:16:49;36.17;;;0.80;;
3817;SDS011;1924;48.078;11.516;2023-07-13T06:19:17;36.40;;;0.80;;
3817;SDS011;1924;48.078;11.516;2023-07-13T06:21:44;36.23;;;0.80;;
3817;SDS011;1924;48.078;11.516;2023-07-13T06:24:10;36.30;;;0.80;;
3817;SDS011;1924;48.078;11.516;2023-07-13T06:26:37;36.03;;;0.80;;
3817;SDS011;1924;48.078;11.516;2023-07-13T06:29:04;36.17;;;0.80;;
3817;SDS011;1924;48.078;11.516;2023-07-13T06:31:31;36.13;;;0.80;;
3817;SDS011;1924;48.078;11.516;2023-07-13T06:33:58;35.87;;;0.80;;
3817;SDS011;1924;48.078;11.516;2023-07-13T06:36:26;36.00;;;0.80;;
3817;SDS011;1924;48.078;11.516;2023-07-13T06:38:53;35.97;;;0.80;;
3817;SDS011;1924;48.078;11.516;2023-07-13T06:41:20;36.13;;;0.80;;
3817;SDS011;1924;48.078;11.516;2023-07-13T06:43:47;36.13;;;0.80;;
3817;SDS011;1924;48.078;11.516;2023-07-13T06:46:13;36.17;;;0.80;;
3817;SDS011;1924;48.078;11.516;2023-07-13T06:48:40;36.07;;;0.80;;
3817;SDS011;1924;48.078;11.516;2023-07-13T06:51:07;35.97;;;0.80;;
3817;SDS011;1924;48.078;11.516;2023-07-13T06:53:36;36.30;;;0.80;;
3817;SDS011;1924;48.078;11.516;2023-07-13T06:56:03;35.93;;;0.80;;
3817;SDS011;1924;48.078;11.516;2023-07-13T06:58:30;36.10;;;0.80;;
3817;SDS011;1924;48.078;11.516;2023-07-13T07:00:57;36.10;;;0.80;;
3817;SDS011;1924;48.078;11.516;2023-07-13T07:03:23;35.87;;;0.80;;
3817;SDS011;1924;48.078;11.516;2023-07-13T07:05:50;36.27;;;0.80;;
3817;SDS011;1924;48.078;11.516;2023-07-13T07:08:17;36.10;;;0.80;;
3817;SDS011;1924;48.078;11.516;2023-07-13T07:10:45;36.30;;;0.80;;
3817;SDS011;1924;48.078;11.516;2023-07-13T07:13:12;36.17;;;0.80;;
3817;SDS011;1924;48.078;11.516;2023-07-13T07:15:38;36.03;;;0.80;;
3817;SDS011;1924;48.078;11.516;2023-07-13T07:18:05;35.93;;;0.80;;
3817;SDS011;1924;48.078;11.516;2023-07-13T07:20:32;36.20;;;0.80;;
3817;SDS011;1924;48.078;11.516;2023-07-13T07:22:59;36.17;;;0.80;;
3817;SDS011;1924;48.078;11.516;2023-07-13T07:25:25;36.30;;;0.80;;
3817;SDS011;1924;48.078;11.516;2023-07-13T07:27:53;36.07;;;0.80;;
3817;SDS011;1924;48.078;11.516;2023-07-13T07:30:20;36.20;;;0.80;;
3817;SDS011;1924;48.078;11.516;2023-07-13T07:32:47;36.10;;;0.80;;
3817;SDS011;1924;48.078;11.516;2023-07-13T07:35:13;36.07;;;0.80;;
3817;SDS011;1924;48.078;11.516;2023-07-13T07:37:40;35.90;;;0.80;;
3817;SDS011;1924;48.078;11.516;2023-07-13T07:40:07;35.90;;;0.80;;
3817;SDS011;1924;48.078;11.516;2023-07-13T07:42:34;35.97;;;0.80;;
3817;SDS011;1924;48.078;11.516;2023-07-13T07:45:02;35.90;;;0.80;;
3817;SDS011;1924;48.078;11.516;2023-07-13T07:47:29;35.97;;;0.80;;
3817;SDS011;1924;48.078;11.516;2023-07-13T07:49:56;35.97;;;0.80;;
3817;SDS011;1924;48.078;11.516;2023-07-13T07:52:22;35.80;;;0.80;;
3817;SDS011;1924;48.078;11.516;2023-07-13T07:54:49;35.73;;;0.80;;
3817;SDS011;1924;48.078;11.516;2023-07-13T07:57:16;35.77;;;0.80;;
3817;SDS011;1924;48.078;11.516;2023-07-13T07:59:43;35.93;;;0.80;;
3817;SDS011;1924;48.078;11.516;2023-07-13T08:02:11;35.83;;;0.80;;
3817;SDS011;1924;48.078;11.516;2023-07-13T08:04:38;35.70;;;0.80;;
3817;SDS011;1924;48.078;11.516;2023-07-13T08:07:05;35.90;;;0.80;;
3817;SDS011;1924;48.078;11.516;2023-07-13T08:09:32;35.77;;;0.80;;
3817;SDS011;1924;48.078;11.516;2023-07-13T08:11:58;35.57;;;0.80;;
3817;SDS011;1924;48.078;11.516;2023-07-13T08:14:25;35.63;;;0.80;;
3817;SDS011;1924;48.078;11.516;2023-07-13T08:16:52;35.80;;;0.80;;
3817;SDS011;1924;48.078;11.516;2023-07-13T08:19:21;35.73;;;0.80;;
3817;SDS011;1924;48.078;11.516;2023-07-13T08:21:47;35.90;;;0.80;;
3817;SDS011;1924;48.078;11.516;2023-07-13T08:24:14;35.77;;;0.80;;
3817;SDS011;1924;48.078;11.516;2023-07-13T08:26:43;35.73;;;0.80;;
3817;SDS011;1924;48.078;11.516;2023-07-13T08:29:10;35.87;;;0.80;;
3817;SDS011;1924;48.078;11.516;2023-07-13T08:31:37;35.80;;;0.80;;
3817;SDS011;1924;48.078;11.516;2023-07-13T08:34:03;35.87;;;0.80;;
3817;SDS011;1924;48.078;11.516;2023-07-13T08:36:31;35.90;;;0.80;;
3817;SDS011;1924;48.078;11.516;2023-07-13T08:38:58;36.00;;;0.80;;
3817;SDS011;1924;48.078;11.516;2023-07-13T08:41:25;35.73;;;0.80;;
3817;SDS011;1924;48.078;11.516;2023-07-13T08:43:54;35.80;;;0.80;;
3817;SDS011;1924;48.078;11.516;2023-07-13T08:46:25;35.93;;;0.80;;
3817;SDS011;1924;48.078;11.516;2023-07-13T08:48:56;36.00;;;0.80;;
3817;SDS011;1924;48.078;11.516;2023-07-13T08:51:38;35.87;;;0.80;;
3817;SDS011;1924;48.078;11.516;2023-07-13T08:54:11;35.70;;;0.80;;
3817;SDS011;1924;48.078;11.516;2023-07-13T08:56:44;35.97;;;0.80;;
3817;SDS011;1924;48.078;11.516;2023-07-13T08:59:13;35.97;;;0.80;;
3817;SDS011;1924;48.078;11.516;2023-07-13T09:01:53;35.70;;;0.80;;
3817;SDS011;1924;48.078;11.516;2023-07-13T09:04:32;35.70;;;0.80;;
3817;SDS011;1924;48.078;11.516;2023-07-13T09:07:05;35.97;;;0.80;;
3817;SDS011;1924;48.078;11.516;2023-07-13T09:09:42;35.83;;;0.80;;
3817;SDS011;1924;48.078;11.516;2023-07-13T09:12:17;35.73;;;0.80;;
3817;SDS011;1924;48.078;11.516;2023-07-13T09:14:50;35.87;;;0.80;;
3817;SDS011;1924;48.078;11.516;2023-07-13T09:17:20;35.47;;;0.80;;
3817;SDS011;1924;48.078;11.516;2023-07-13T09:19:53;35.57;;;0.80;;
3817;SDS011;1924;48.078;11.516;2023-07-13T09:22:27;35.73;;;0.80;;
3817;SDS011;1924;48.078;11.516;2023-07-13T09:24:57;35.57;;;0.80;;
3817;SDS011;1924;48.078;11.516;2023-07-13T09:27:29;35.60;;;0.80;;
3817;SDS011;1924;48.078;11.516;2023-07-13T09:30:02;35.53;;;0.80;;
3817;SDS011;1924;48.078;11.516;2023-07-13T09:32:38;35.53;;;0.80;;
3817;SDS011;1924;48.078;11.516;2023-07-13T09:35:09;35.47;;;0.80;;
3817;SDS011;1924;48.078;11.516;2023-07-13T09:37:39;35.40;;;0.80;;
3817;SDS011;1924;48.078;11.516;2023-07-13T09:40:08;35.63;;;0.80;;
3817;SDS011;1924;48.078;11.516;2023-07-13T09:42:38;35.40;;;0.80;;
3817;SDS011;1924;48.078;11.516;2023-07-13T09:45:05;35.33;;;0.80;;
3817;SDS011;1924;48.078;11.516;2023-07-13T09:47:37;35.17;;;0.80;;
3817;SDS011;1924;48.078;11.516;2023-07-13T09:50:06;35.50;;;0.80;;
3817;SDS011;1924;48.078;11.516;2023-07-13T09:52:42;35.37;;;0.80;;
3817;SDS011;1924;48.078;11.516;2023-07-13T09:55:26;35.40;;;0.80;;
3817;SDS011;1924;48.078;11.516;2023-07-13T09:57:55;35.33;;;0.80;;
3817;SDS011;1924;48.078;11.516;2023-07-13T10:00:23;35.27;;;0.80;;
3817;SDS011;1924;48.078;11.516;2023-07-13T10:02:57;35.43;;;0.80;;
3817;SDS011;1924;48.078;11.516;2023-07-13T10:05:26;35.60;;;0.80;;
3817;SDS011;1924;48.078;11.516;2023-07-13T10:07:55;35.30;;;0.80;;
3817;SDS011;1924;48.078;11.516;2023-07-13T10:10:22;35.37;;;0.80;;
3817;SDS011;1924;48.078;11.516;2023-07-13T10:12:49;35.30;;;0.80;;
3817;SDS011;1924;48.078;11.516;2023-07-13T10:15:17;35.23;;;0.80;;
3817;SDS011;1924;48.078;11.516;2023-07-13T10:17:46;35.47;;;0.80;;
3817;SDS011;1924;48.078;11.516;2023-07-13T10:20:13;35.13;;;0.80;;
3817;SDS011;1924;48.078;11.516;2023-07-13T10:22:42;35.13;;;0.80;;
3817;SDS011;1924;48.078;11.516;2023-07-13T10:27:48;35.13;;;0.80;;
3817;SDS011;1924;48.078;11.516;2023-07-13T10:30:19;35.23;;;0.80;;
3817;SDS011;1924;48.078;11.516;2023-07-13T10:32:50;35.27;;;0.80;;
3817;SDS011;1924;48.078;11.516;2023-07-13T10:35:19;35.07;;;0.80;;
3817;SDS011;1924;48.078;11.516;2023-07-13T10:37:49;35.20;;;0.80;;
3817;SDS011;1924;48.078;11.516;2023-07-13T10:40:20;35.00;;;0.80;;
3817;SDS011;1924;48.078;11.516;2023-07-13T10:42:53;35.07;;;0.80;;
3817;SDS011;1924;48.078;11.516;2023-07-13T10:45:22;35.03;;;0.80;;
3817;SDS011;1924;48.078;11.516;2023-07-13T10:47:50;35.00;;;0.80;;
3817;SDS011;1924;48.078;11.516;2023-07-13T10:50:21;35.03;;;0.80;;
3817;SDS011;1924;48.078;11.516;2023-07-13T10:52:51;34.97;;;0.80;;
3817;SDS011;1924;48.078;11.516;2023-07-13T10:58:12;35.10;;;0.80;;
3817;SDS011;1924;48.078;11.516;2023-07-13T11:00:43;35.07;;;0.80;;
3817;SDS011;1924;48.078;11.516;2023-07-13T11:03:14;34.97;;;0.80;;
3817;SDS011;1924;48.078;11.516;2023-07-13T11:05:43;34.97;;;0.80;;
3817;SDS011;1924;48.078;11.516;2023-07-13T11:08:16;35.23;;;0.80;;
3817;SDS011;1924;48.078;11.516;2023-07-13T11:10:48;35.17;;;0.80;;
3817;SDS011;1924;48.078;11.516;2023-07-13T11:13:37;35.07;;;0.80;;
3817;SDS011;1924;48.078;11.516;2023-07-13T11:16:35;35.23;;;0.80;;
3817;SDS011;1924;48.078;11.516;2023-07-13T11:19:26;35.20;;;0.80;;
3817;SDS011;1924;48.078;11.516;2023-07-13T11:25:24;35.20;;;0.80;;
3817;SDS011;1924;48.078;11.516;2023-07-13T11:28:04;35.30;;;0.80;;
3817;SDS011;1924;48.078;11.516;2023-07-13T11:30:48;35.37;;;0.80;;
3817;SDS011;1924;48.078;11.516;2023-07-13T11:33:27;35.17;;;0.80;;
3817;SDS011;1924;48.078;11.516;2023-07-13T11:36:15;35.30;;;0.80;;
3817;SDS011;1924;48.078;11.516;2023-07-13T11:38:47;35.30;;;0.80;;
3817;SDS011;1924;48.078;11.516;2023-07-13T11:41:24;35.27;;;0.80;;
3817;SDS011;1924;48.078;11.516;2023-07-13T11:43:56;35.33;;;0.80;;
3817;SDS011;1924;48.078;11.516;2023-07-13T11:46:33;35.07;;;0.80;;
3817;SDS011;1924;48.078;11.516;2023-07-13T11:49:00;35.17;;;0.80;;
3817;SDS011;1924;48.078;11.516;2023-07-13T11:51:28;35.23;;;0.80;;
3817;SDS011;1924;48.078;11.516;2023-07-13T11:53:57;35.20;;;0.80;;
3817;SDS011;1924;48.078;11.516;2023-07-13T11:56:28;35.13;;;0.80;;
3817;SDS011;1924;48.078;11.516;2023-07-13T11:58:56;35.27;;;0.80;;
3817;SDS011;1924;48.078;11.516;2023-07-13T12:01:24;34.87;;;0.80;;
3817;SDS011;1924;48.078;11.516;2023-07-13T12:03:58;35.23;;;0.80;;
3817;SDS011;1924;48.078;11.516;2023-07-13T12:06:27;35.17;;;0.80;;
3817;SDS011;1924;48.078;11.516;2023-07-13T12:08:58;34.97;;;0.80;;
3817;SDS011;1924;48.078;11.516;2023-07-13T12:11:28;35.13;;;0.80;;
3817;SDS011;1924;48.078;11.516;2023-07-13T12:13:56;35.00;;;0.80;;
3817;SDS011;1924;48.078;11.516;2023-07-13T12:16:25;34.97;;;0.80;;
3817;SDS011;1924;48.078;11.516;2023-07-13T12:18:55;35.17;;;0.80;;
3817;SDS011;1924;48.078;11.516;2023-07-13T12:21:26;35.10;;;0.80;;
3817;SDS011;1924;48.078;11.516;2023-07-13T12:23:57;35.17;;;0.80;;
3817;SDS011;1924;48.078;11.516;2023-07-13T12:26:26;35.07;;;0.80;;
3817;SDS011;1924;48.078;11.516;2023-07-13T12:28:54;35.07;;;0.80;;
3817;SDS011;1924;48.078;11.516;2023-07-13T12:31:26;35.03;;;0.80;;
3817;SDS011;1924;48.078;11.516;2023-07-13T12:33:58;35.10;;;0.80;;
3817;SDS011;1924;48.078;11.516;2023-07-13T12:36:27;35.07;;;0.80;;
3817;SDS011;1924;48.078;11.516;2023-07-13T12:38:58;35.00;;;0.80;;
3817;SDS011;1924;48.078;11.516;2023-07-13T12:41:29;35.17;;;0.80;;
3817;SDS011;1924;48.078;11.516;2023-07-13T12:43:56;34.93;;;0.80;;
3817;SDS011;1924;48.078;11.516;2023-07-13T12:46:23;35.00;;;0.80;;
3817;SDS011;1924;48.078;11.516;2023-07-13T12:48:54;34.93;;;0.80;;
3817;SDS011;1924;48.078;11.516;2023-07-13T12:51:24;35.10;;;0.80;;
3817;SDS011;1924;48.078;11.516;2023-07-13T12:53:56;34.97;;;0.80;;
3817;SDS011;1924;48.078;11.516;2023-07-13T12:56:32;34.90;;;0.80;;
3817;SDS011;1924;48.078;11.516;2023-07-13T12:59:01;34.83;;;0.80;;
3817;SDS011;1924;48.078;11.516;2023-07-13T13:01:31;34.80;;;0.80;;
3817;SDS011;1924;48.078;11.516;2023-07-13T13:04:02;34.80;;;0.80;;
3817;SDS011;1924;48.078;11.516;2023-07-13T13:06:31;34.97;;;0.80;;
3817;SDS011;1924;48.078;11.516;2023-07-13T13:09:02;34.87;;;0.80;;
3817;SDS011;1924;48.078;11.516;2023-07-13T13:11:30;34.67;;;0.80;;
3817;SDS011;1924;48.078;11.516;2023-07-13T13:13:57;34.73;;;0.80;;
3817;SDS011;1924;48.078;11.516;2023-07-13T13:16:29;34.93;;;0.80;;
3817;SDS011;1924;48.078;11.516;2023-07-13T13:18:58;34.77;;;0.80;;
3817;SDS011;1924;48.078;11.516;2023-07-13T13:21:28;34.77;;;0.80;;
3817;SDS011;1924;48.078;11.516;2023-07-13T13:23:54;34.73;;;0.80;;
3817;SDS011;1924;48.078;11.516;2023-07-13T13:26:22;34.67;;;0.80;;
3817;SDS011;1924;48.078;11.516;2023-07-13T13:28:49;34.80;;;0.80;;
3817;SDS011;1924;48.078;11.516;2023-07-13T13:31:16;34.90;;;0.80;;
3817;SDS011;1924;48.078;11.516;2023-07-13T13:33:43;34.77;;;0.80;;
3817;SDS011;1924;48.078;11.516;2023-07-13T13:36:13;34.77;;;0.80;;
3817;SDS011;1924;48.078;11.516;2023-07-13T13:38:42;34.67;;;0.80;;
3817;SDS011;1924;48.078;11.516;2023-07-13T13:41:09;34.80;;;0.80;;
3817;SDS011;1924;48.078;11.516;2023-07-13T13:43:39;34.80;;;0.80;;
3817;SDS011;1924;48.078;11.516;2023-07-13T13:46:14;34.90;;;0.80;;
3817;SDS011;1924;48.078;11.516;2023-07-13T13:48:43;34.93;;;0.80;;
3817;SDS011;1924;48.078;11.516;2023-07-13T13:51:15;35.00;;;0.80;;
3817;SDS011;1924;48.078;11.516;2023-07-13T13:53:43;34.80;;;0.80;;
3817;SDS011;1924;48.078;11.516;2023-07-13T13:56:11;34.77;;;0.80;;
3817;SDS011;1924;48.078;11.516;2023-07-13T13:58:41;34.73;;;0.80;;
3817;SDS011;1924;48.078;11.516;2023-07-13T14:01:12;34.77;;;0.80;;
3817;SDS011;1924;48.078;11.516;2023-07-13T14:03:41;34.93;;;0.80;;
3817;SDS011;1924;48.078;11.516;2023-07-13T14:06:08;34.83;;;0.80;;
3817;SDS011;1924;48.078;11.516;2023-07-13T14:08:38;34.90;;;0.80;;
3817;SDS011;1924;48.078;11.516;2023-07-13T14:11:05;35.00;;;0.80;;
3817;SDS011;1924;48.078;11.516;2023-07-13T14:13:35;34.77;;;0.80;;
3817;SDS011;1924;48.078;11.516;2023-07-13T14:16:08;34.90;;;0.80;;
3817;SDS011;1924;48.078;11.516;2023-07-13T14:18:37;34.80;;;0.80;;
3817;SDS011;1924;48.078;11.516;2023-07-13T14:21:08;34.70;;;0.80;;
3817;SDS011;1924;48.078;11.516;2023-07-13T14:23:37;34.70;;;0.80;;
3817;SDS011;1924;48.078;11.516;2023-07-13T14:26:07;34.77;;;0.80;;
3817;SDS011;1924;48.078;11.516;2023-07-13T14:28:36;34.63;;;0.80;;
3817;SDS011;1924;48.078;11.516;2023-07-13T14:31:08;34.73;;;0.80;;
3817;SDS011;1924;48.078;11.516;2023-07-13T14:33:37;34.60;;;0.80;;
3817;SDS011;1924;48.078;11.516;2023-07-13T14:36:22;34.73;;;0.80;;
3817;SDS011;1924;48.078;11.516;2023-07-13T14:38:52;34.80;;;0.80;;
3817;SDS011;1924;48.078;11.516;2023-07-13T14:41:19;34.50;;;0.80;;
3817;SDS011;1924;48.078;11.516;2023-07-13T14:43:46;34.57;;;0.80;;
3817;SDS011;1924;48.078;11.516;2023-07-13T14:46:18;34.70;;;0.80;;
3817;SDS011;1924;48.078;11.516;2023-07-13T14:48:54;34.63;;;0.80;;
3817;SDS011;1924;48.078;11.516;2023-07-13T14:51:26;34.70;;;0.80;;
3817;SDS011;1924;48.078;11.516;2023-07-13T14:53:53;34.70;;;0.80;;
3817;SDS011;1924;48.078;11.516;2023-07-13T14:56:20;34.50;;;0.80;;
3817;SDS011;1924;48.078;11.516;2023-07-13T14:58:46;34.70;;;0.80;;
3817;SDS011;1924;48.078;11.516;2023-07-13T15:01:13;34.47;;;0.80;;
3817;SDS011;1924;48.078;11.516;2023-07-13T15:03:44;34.67;;;0.80;;
3817;SDS011;1924;48.078;11.516;2023-07-13T15:06:13;34.70;;;0.80;;
3817;SDS011;1924;48.078;11.516;2023-07-13T15:08:40;34.60;;;0.80;;
3817;SDS011;1924;48.078;11.516;2023-07-13T15:11:07;34.80;;;0.80;;
3817;SDS011;1924;48.078;11.516;2023-07-13T15:13:36;34.53;;;0.80;;
3817;SDS011;1924;48.078;11.516;2023-07-13T15:16:03;34.67;;;0.80;;
3817;SDS011;1924;48.078;11.516;2023-07-13T15:18:32;34.67;;;0.80;;
3817;SDS011;1924;48.078;11.516;2023-07-13T15:21:01;34.70;;;0.80;;
3817;SDS011;1924;48.078;11.516;2023-07-13T15:23:29;34.87;;;0.80;;
3817;SDS011;1924;48.078;11.516;2023-07-13T15:25:55;34.80;;;0.80;;
3817;SDS011;1924;48.078;11.516;2023-07-13T15:28:22;34.73;;;0.80;;
3817;SDS011;1924;48.078;11.516;2023-07-13T15:30:49;34.80;;;0.80;;
3817;SDS011;1924;48.078;11.516;2023-07-13T15:33:24;34.67;;;0.80;;
3817;SDS011;1924;48.078;11.516;2023-07-13T15:35:53;34.73;;;0.80;;
3817;SDS011;1924;48.078;11.516;2023-07-13T15:38:22;34.63;;;0.80;;
3817;SDS011;1924;48.078;11.516;2023-07-13T15:40:51;34.53;;;0.80;;
3817;SDS011;1924;48.078;11.516;2023-07-13T15:43:18;34.77;;;0.80;;
3817;SDS011;1924;48.078;11.516;2023-07-13T15:45:46;34.73;;;0.80;;
3817;SDS011;1924;48.078;11.516;2023-07-13T15:48:14;34.80;;;0.80;;
3817;SDS011;1924;48.078;11.516;2023-07-13T15:50:44;34.90;;;0.80;;
3817;SDS011;1924;48.078;11.516;2023-07-13T15:53:13;34.90;;;0.80;;
3817;SDS011;1924;48.078;11.516;2023-07-13T15:55:43;34.77;;;0.80;;
3817;SDS011;1924;48.078;11.516;2023-07-13T15:58:11;34.83;;;0.80;;
3817;SDS011;1924;48.078;11.516;2023-07-13T16:00:40;34.73;;;0.80;;
3817;SDS011;1924;48.078;11.516;2023-07-13T16:03:07;34.87;;;0.80;;
3817;SDS011;1924;48.078;11.516;2023-07-13T16:05:35;34.73;;;0.80;;
3817;SDS011;1924;48.078;11.516;2023-07-13T16:08:03;34.80;;;0.80;;
3817;SDS011;1924;48.078;11.516;2023-07-13T16:10:32;34.80;;;0.80;;
3817;SDS011;1924;48.078;11.516;2023-07-13T16:13:03;34.90;;;0.80;;
3817;SDS011;1924;48.078;11.516;2023-07-13T16:15:31;34.77;;;0.80;;
3817;SDS011;1924;48.078;11.516;2023-07-13T16:17:57;34.70;;;0.80;;
3817;SDS011;1924;48.078;11.516;2023-07-13T16:20:24;34.83;;;0.80;;
3817;SDS011;1924;48.078;11.516;2023-07-13T16:22:53;34.63;;;0.80;;
3817;SDS011;1924;48.078;11.516;2023-07-13T16:25:22;34.77;;;0.80;;
3817;SDS011;1924;48.078;11.516;2023-07-13T16:27:51;34.93;;;0.80;;
3817;SDS011;1924;48.078;11.516;2023-07-13T16:30:27;34.93;;;0.80;;
3817;SDS011;1924;48.078;11.516;2023-07-13T16:32:56;34.90;;;0.80;;
3817;SDS011;1924;48.078;11.516;2023-07-13T16:35:27;34.90;;;0.80;;
3817;SDS011;1924;48.078;11.516;2023-07-13T16:40:34;34.87;;;0.80;;
3817;SDS011;1924;48.078;11.516;2023-07-13T16:43:01;34.63;;;0.80;;
3817;SDS011;1924;48.078;11.516;2023-07-13T16:45:30;34.87;;;0.80;;
3817;SDS011;1924;48.078;11.516;2023-07-13T16:47:59;34.80;;;0.80;;
3817;SDS011;1924;48.078;11.516;2023-07-13T16:50:29;34.67;;;0.80;;
3817;SDS011;1924;48.078;11.516;2023-07-13T16:52:59;34.63;;;0.80;;
3817;SDS011;1924;48.078;11.516;2023-07-13T16:55:27;34.80;;;0.80;;
3817;SDS011;1924;48.078;11.516;2023-07-13T16:57:55;34.77;;;0.80;;
3817;SDS011;1924;48.078;11.516;2023-07-13T17:00:26;34.80;;;0.80;;
3817;SDS011;1924;48.078;11.516;2023-07-13T17:03:01;34.60;;;0.80;;
3817;SDS011;1924;48.078;11.516;2023-07-13T17:05:31;34.83;;;0.80;;
3817;SDS011;1924;48.078;11.516;2023-07-13T17:08:02;34.80;;;0.80;;
3817;SDS011;1924;48.078;11.516;2023-07-13T17:10:38;34.80;;;0.80;;
3817;SDS011;1924;48.078;11.516;2023-07-13T17:13:07;34.80;;;0.80;;
3817;SDS011;1924;48.078;11.516;2023-07-13T17:15:36;34.67;;;0.80;;
3817;SDS011;1924;48.078;11.516;2023-07-13T17:20:32;34.60;;;0.80;;
3817;SDS011;1924;48.078;11.516;2023-07-13T17:23:02;34.73;;;0.80;;
3817;SDS011;1924;48.078;11.516;2023-07-13T17:25:31;34.90;;;0.80;;
3817;SDS011;1924;48.078;11.516;2023-07-13T17:27:58;34.80;;;0.80;;
3817;SDS011;1924;48.078;11.516;2023-07-13T17:30:26;34.87;;;0.80;;
3817;SDS011;1924;48.078;11.516;2023-07-13T17:32:53;34.73;;;0.80;;
3817;SDS011;1924;48.078;11.516;2023-07-13T17:38:44;34.90;;;0.80;;
3817;SDS011;1924;48.078;11.516;2023-07-13T17:46:17;34.70;;;0.80;;
3817;SDS011;1924;48.078;11.516;2023-07-13T17:48:46;34.83;;;0.80;;
3817;SDS011;1924;48.078;11.516;2023-07-13T17:51:16;34.97;;;0.80;;
3817;SDS011;1924;48.078;11.516;2023-07-13T17:53:46;34.87;;;0.80;;
3817;SDS011;1924;48.078;11.516;2023-07-13T17:56:13;34.83;;;0.80;;
3817;SDS011;1924;48.078;11.516;2023-07-13T17:58:41;34.97;;;0.80;;
3817;SDS011;1924;48.078;11.516;2023-07-13T18:03:35;34.87;;;0.80;;
3817;SDS011;1924;48.078;11.516;2023-07-13T18:06:10;34.97;;;0.80;;
3817;SDS011;1924;48.078;11.516;2023-07-13T18:08:44;34.90;;;0.80;;
3817;SDS011;1924;48.078;11.516;2023-07-13T18:11:13;35.13;;;0.80;;
3817;SDS011;1924;48.078;11.516;2023-07-13T18:13:40;35.07;;;0.80;;
3817;SDS011;1924;48.078;11.516;2023-07-13T18:16:14;35.10;;;0.80;;
3817;SDS011;1924;48.078;11.516;2023-07-13T18:18:43;35.23;;;0.80;;
3817;SDS011;1924;48.078;11.516;2023-07-13T18:21:12;35.17;;;0.80;;
3817;SDS011;1924;48.078;11.516;2023-07-13T18:23:42;34.97;;;0.80;;
3817;SDS011;1924;48.078;11.516;2023-07-13T18:26:10;35.17;;;0.80;;
3817;SDS011;1924;48.078;11.516;2023-07-13T18:28:41;35.27;;;0.80;;
3817;SDS011;1924;48.078;11.516;2023-07-13T18:31:08;35.20;;;0.80;;
3817;SDS011;1924;48.078;11.516;2023-07-13T18:33:38;35.30;;;0.80;;
3817;SDS011;1924;48.078;11.516;2023-07-13T18:38:43;35.07;;;0.80;;
3817;SDS011;1924;48.078;11.516;2023-07-13T18:48:47;35.17;;;0.80;;
3817;SDS011;1924;48.078;11.516;2023-07-13T18:51:14;35.17;;;0.80;;
3817;SDS011;1924;48.078;11.516;2023-07-13T18:53:41;35.23;;;0.80;;
3817;SDS011;1924;48.078;11.516;2023-07-13T18:56:08;35.37;;;0.80;;
3817;SDS011;1924;48.078;11.516;2023-07-13T18:58:37;35.17;;;0.80;;
3817;SDS011;1924;48.078;11.516;2023-07-13T19:01:04;35.33;;;0.80;;
3817;SDS011;1924;48.078;11.516;2023-07-13T19:03:39;35.27;;;0.80;;
3817;SDS011;1924;48.078;11.516;2023-07-13T19:06:08;35.37;;;0.80;;
3817;SDS011;1924;48.078;11.516;2023-07-13T19:08:37;35.37;;;0.80;;
3817;SDS011;1924;48.078;11.516;2023-07-13T19:11:08;35.43;;;0.80;;
3817;SDS011;1924;48.078;11.516;2023-07-13T19:13:38;35.27;;;0.80;;
3817;SDS011;1924;48.078;11.516;2023-07-13T19:16:05;35.37;;;0.80;;
3817;SDS011;1924;48.078;11.516;2023-07-13T19:18:31;35.37;;;0.80;;
3817;SDS011;1924;48.078;11.516;2023-07-13T19:20:58;35.23;;;0.80;;
3817;SDS011;1924;48.078;11.516;2023-07-13T19:23:33;35.33;;;0.80;;
3817;SDS011;1924;48.078;11.516;2023-07-13T19:26:05;35.33;;;0.80;;
3817;SDS011;1924;48.078;11.516;2023-07-13T19:28:40;35.37;;;0.80;;
3817;SDS011;1924;48.078;11.516;2023-07-13T19:31:18;35.17;;;0.80;;
3817;SDS011;1924;48.078;11.516;2023-07-13T19:33:46;35.43;;;0.80;;
3817;SDS011;1924;48.078;11.516;2023-07-13T19:36:14;35.27;;;0.80;;